Time;durP1;ratioP1;P1;durP2;ratioP2;P2;SDS_P1;SDS_P2;PMS_P1;PMS_P2;Temp;Humidity;BMP_temperature;BMP_pressure;BME280_temperature;BME280_humidity;BME280_pressure;Samples;Min_cycle;Max_cycle;Signal;HPM_P1;HPM_P2
2022/01/10 00:02:09;;;;;;;8.20;2.42;;;2.60;99.90;;;;;;5089543;28;20200;-62
2022/01/10 00:04:36;;;;;;;5.03;2.35;;;2.60;99.90;;;;;;5089847;28;20201;-64
2022/01/10 00:07:03;;;;;;;3.58;2.25;;;2.60;99.90;;;;;;5090109;28;20255;-64
2022/01/10 00:09:29;;;;;;;2.80;2.50;;;2.60;99.90;;;;;;5081314;28;20201;-64
2022/01/10 00:11:56;;;;;;;8.15;3.88;;;2.60;99.90;;;;;;5080764;28;20201;-64
2022/01/10 00:14:23;;;;;;;6.45;3.10;;;2.60;99.90;;;;;;5085320;28;20763;-64
2022/01/10 00:16:51;;;;;;;2.20;1.70;;;2.60;99.90;;;;;;5087845;28;20337;-64
2022/01/10 00:19:17;;;;;;;5.78;3.30;;;2.60;99.90;;;;;;5091091;28;20224;-64
2022/01/10 00:21:44;;;;;;;4.60;3.15;;;2.50;99.90;;;;;;5084807;28;20197;-64
2022/01/10 00:24:11;;;;;;;2.78;2.15;;;2.50;99.90;;;;;;5085053;28;20213;-64
2022/01/10 00:26:37;;;;;;;3.22;2.53;;;2.50;99.90;;;;;;5090623;28;20278;-64
2022/01/10 00:29:04;;;;;;;2.40;2.20;;;2.50;99.90;;;;;;5088173;28;20258;-62
2022/01/10 00:31:31;;;;;;;3.00;2.80;;;2.50;99.90;;;;;;5084780;28;20942;-63
2022/01/10 00:33:59;;;;;;;7.95;3.53;;;2.50;99.90;;;;;;5084322;28;20230;-64
2022/01/10 00:36:26;;;;;;;4.60;2.88;;;2.60;99.90;;;;;;5088272;28;20225;-64
2022/01/10 00:38:53;;;;;;;2.58;2.10;;;2.60;99.90;;;;;;5087663;28;20220;-63
2022/01/10 00:41:19;;;;;;;3.00;2.80;;;2.70;99.90;;;;;;5094649;28;20256;-63
2022/01/10 00:43:48;;;;;;;2.58;2.40;;;2.80;99.90;;;;;;5088478;28;20204;-63
2022/01/10 00:46:15;;;;;;;2.67;2.40;;;2.80;99.90;;;;;;5082768;28;20225;-63
2022/01/10 00:48:42;;;;;;;4.43;2.65;;;2.80;99.90;;;;;;5082943;28;20193;-64
2022/01/10 00:51:10;;;;;;;3.22;1.85;;;2.90;99.90;;;;;;5089874;28;20212;-64
2022/01/10 00:53:37;;;;;;;5.90;3.95;;;2.90;99.90;;;;;;5091386;28;20197;-64
2022/01/10 00:56:08;;;;;;;3.67;3.38;;;3.00;99.90;;;;;;5090047;28;20224;-63
2022/01/10 00:58:35;;;;;;;4.68;2.17;;;2.90;99.90;;;;;;5085292;28;20213;-63
2022/01/10 01:01:01;;;;;;;3.17;2.97;;;2.90;99.90;;;;;;5084142;28;20201;-63
2022/01/10 01:03:28;;;;;;;5.45;2.85;;;2.90;99.90;;;;;;5084962;28;20748;-63
2022/01/10 01:05:55;;;;;;;18.58;4.05;;;2.80;99.90;;;;;;5084757;28;20221;-63
2022/01/10 01:08:25;;;;;;;5.10;2.42;;;2.70;99.90;;;;;;5086607;28;20295;-63
2022/01/10 01:13:52;;;;;;;3.35;2.28;;;2.70;99.90;;;;;;5022062;28;20240;-63
2022/01/10 01:16:30;;;;;;;3.45;3.17;;;2.60;99.90;;;;;;5080888;28;20228;-63
2022/01/10 01:19:50;;;;;;;10.73;3.15;;;2.50;99.90;;;;;;5081857;28;20227;-63
2022/01/10 01:24:42;;;;;;;10.40;3.13;;;2.40;99.90;;;;;;5084966;28;20204;-63
2022/01/10 01:27:09;;;;;;;5.40;2.55;;;2.30;99.90;;;;;;5087583;28;20201;-63
2022/01/10 01:29:35;;;;;;;6.10;2.83;;;2.30;99.90;;;;;;5087583;28;20193;-63
2022/01/10 01:32:02;;;;;;;3.20;2.83;;;2.20;99.90;;;;;;5087522;28;20201;-63
2022/01/10 01:34:29;;;;;;;2.15;1.98;;;2.20;99.90;;;;;;5081317;28;20204;-63
2022/01/10 01:36:56;;;;;;;2.58;2.38;;;2.20;99.90;;;;;;5084517;28;20580;-63
2022/01/10 01:39:25;;;;;;;7.20;3.38;;;2.10;99.90;;;;;;5084030;28;20220;-63
2022/01/10 01:42:00;;;;;;;3.33;2.45;;;2.10;99.90;;;;;;5083159;28;20207;-63
2022/01/10 01:44:27;;;;;;;6.20;2.80;;;2.10;99.90;;;;;;5084078;28;20310;-63
2022/01/10 01:46:54;;;;;;;3.13;2.60;;;2.20;99.90;;;;;;5083750;28;20224;-63
2022/01/10 01:49:20;;;;;;;3.30;3.00;;;2.20;99.90;;;;;;5078866;28;20193;-62
2022/01/10 01:51:47;;;;;;;7.53;3.92;;;2.30;99.90;;;;;;5085957;28;20794;-62
2022/01/10 01:54:14;;;;;;;5.30;3.28;;;2.30;99.90;;;;;;5084626;28;20209;-62
2022/01/10 01:56:41;;;;;;;2.78;2.08;;;2.40;99.90;;;;;;5085091;28;20763;-62
2022/01/10 01:59:10;;;;;;;2.90;2.70;;;2.40;99.90;;;;;;5087346;28;20224;-62
2022/01/10 02:01:37;;;;;;;2.13;2.00;;;2.40;99.90;;;;;;5080512;28;20204;-61
2022/01/10 02:04:04;;;;;;;1.90;1.52;;;2.40;99.90;;;;;;5079667;28;20303;-62
2022/01/10 02:06:31;;;;;;;3.65;2.03;;;2.40;99.90;;;;;;5081616;28;20994;-62
2022/01/10 02:08:58;;;;;;;3.55;3.00;;;2.30;99.90;;;;;;5085428;28;20154;-62
2022/01/10 02:11:24;;;;;;;7.82;1.70;;;2.30;99.90;;;;;;5082849;28;20205;-62
2022/01/10 02:13:51;;;;;;;2.25;2.13;;;2.30;99.90;;;;;;5078365;28;20208;-62
2022/01/10 02:16:31;;;;;;;3.80;1.92;;;2.20;99.90;;;;;;5084170;28;20281;-64
2022/01/10 02:18:58;;;;;;;2.30;2.08;;;2.20;99.90;;;;;;5078680;28;20213;-63
2022/01/10 02:21:26;;;;;;;2.90;2.50;;;2.10;99.90;;;;;;5087988;28;20259;-64
2022/01/10 02:23:53;;;;;;;2.50;2.00;;;2.10;99.90;;;;;;5087001;28;20258;-64
2022/01/10 02:26:20;;;;;;;8.13;2.92;;;2.00;99.90;;;;;;5089032;28;20277;-63
2022/01/10 02:28:46;;;;;;;2.78;2.28;;;2.00;99.90;;;;;;5081662;28;20209;-63
2022/01/10 02:31:14;;;;;;;9.52;3.08;;;2.10;99.90;;;;;;5082745;28;20341;-63
2022/01/10 02:33:41;;;;;;;3.03;2.72;;;2.20;99.90;;;;;;5076158;28;20201;-63
2022/01/10 02:36:17;;;;;;;6.97;3.35;;;2.30;99.90;;;;;;5079344;28;20230;-63
2022/01/10 02:38:49;;;;;;;2.80;2.47;;;2.40;99.90;;;;;;5077391;28;20222;-62
2022/01/10 02:41:24;;;;;;;3.50;3.20;;;2.40;99.90;;;;;;5078852;28;20838;-63
2022/01/10 02:43:52;;;;;;;3.17;2.33;;;2.50;99.90;;;;;;5078633;28;20291;-63
2022/01/10 02:46:18;;;;;;;4.40;3.53;;;2.60;99.90;;;;;;5075332;28;20335;-63
2022/01/10 02:48:45;;;;;;;7.88;2.75;;;2.60;99.90;;;;;;5075598;28;20201;-63
2022/01/10 02:51:12;;;;;;;3.35;3.05;;;2.70;99.90;;;;;;5074602;28;20205;-63
2022/01/10 02:53:39;;;;;;;3.22;2.75;;;2.70;99.90;;;;;;5074864;28;20726;-63
2022/01/10 02:56:07;;;;;;;8.85;3.63;;;2.60;99.90;;;;;;5081728;28;20277;-63
2022/01/10 02:58:34;;;;;;;6.18;2.58;;;2.50;99.90;;;;;;5085508;28;20286;-63
2022/01/10 03:01:00;;;;;;;2.35;2.15;;;2.40;99.90;;;;;;5081405;28;20850;-63
2022/01/10 03:03:27;;;;;;;5.72;2.80;;;2.40;99.90;;;;;;5085421;28;20265;-63
2022/01/10 03:05:54;;;;;;;3.65;2.50;;;2.30;99.90;;;;;;5085880;28;20225;-64
2022/01/10 03:08:21;;;;;;;4.20;2.33;;;2.20;99.90;;;;;;5083871;28;20224;-63
2022/01/10 03:10:48;;;;;;;3.08;2.63;;;2.20;99.90;;;;;;5076007;28;20209;-63
2022/01/10 03:13:16;;;;;;;3.20;2.72;;;2.10;99.90;;;;;;5076435;28;20726;-63
2022/01/10 03:15:43;;;;;;;3.20;2.90;;;2.10;99.90;;;;;;5081074;28;20224;-63
2022/01/10 03:18:10;;;;;;;3.28;2.92;;;2.00;99.90;;;;;;5086441;28;20213;-63
2022/01/10 03:20:36;;;;;;;3.97;2.50;;;1.90;99.90;;;;;;5083244;28;20266;-63
2022/01/10 03:23:03;;;;;;;1.95;1.85;;;1.90;99.90;;;;;;5085237;28;20200;-63
2022/01/10 03:25:30;;;;;;;3.88;2.85;;;1.80;99.90;;;;;;5086768;28;20250;-63
2022/01/10 03:27:57;;;;;;;3.17;2.70;;;1.80;99.90;;;;;;5088821;28;20258;-63
2022/01/10 03:30:26;;;;;;;7.65;4.15;;;1.70;99.90;;;;;;5079034;28;20197;-63
2022/01/10 03:32:53;;;;;;;5.05;2.40;;;1.70;99.90;;;;;;5087869;28;20200;-63
2022/01/10 03:35:20;;;;;;;4.10;2.20;;;1.70;99.90;;;;;;5091455;28;20311;-63
2022/01/10 03:37:46;;;;;;;5.03;3.15;;;1.60;99.90;;;;;;5084439;28;20258;-63
2022/01/10 03:40:13;;;;;;;4.38;3.38;;;1.60;99.90;;;;;;5084627;28;20232;-63
2022/01/10 03:42:40;;;;;;;2.90;2.70;;;1.50;99.90;;;;;;5087770;28;20208;-63
2022/01/10 03:45:08;;;;;;;4.35;2.60;;;1.50;99.90;;;;;;5088494;28;20232;-63
2022/01/10 03:47:36;;;;;;;6.07;3.10;;;1.50;99.90;;;;;;5089337;28;20192;-63
2022/01/10 03:50:04;;;;;;;3.65;2.97;;;1.40;99.90;;;;;;5079703;28;20193;-62
2022/01/10 03:52:31;;;;;;;4.75;4.25;;;1.40;99.90;;;;;;5087983;28;20201;-63
2022/01/10 03:54:58;;;;;;;8.45;3.35;;;1.40;99.90;;;;;;5090233;28;20221;-63
2022/01/10 03:57:24;;;;;;;5.57;2.20;;;1.40;99.90;;;;;;5079761;28;20201;-63
2022/01/10 03:59:51;;;;;;;5.03;4.20;;;1.40;99.90;;;;;;5088170;28;20277;-63
2022/01/10 04:02:18;;;;;;;2.45;2.25;;;1.30;99.90;;;;;;5085361;28;20682;-63
2022/01/10 04:04:46;;;;;;;4.40;4.00;;;1.30;99.90;;;;;;5085067;28;21246;-63
2022/01/10 04:07:16;;;;;;;2.80;2.60;;;1.30;99.90;;;;;;5080766;28;20234;-63
2022/01/10 04:09:43;;;;;;;3.75;2.60;;;1.20;99.90;;;;;;5083763;28;20380;-63
2022/01/10 04:12:10;;;;;;;5.95;2.45;;;1.10;99.90;;;;;;5083069;28;20204;-63
2022/01/10 04:14:36;;;;;;;9.20;4.05;;;1.10;99.90;;;;;;5083255;28;20609;-62
2022/01/10 04:17:03;;;;;;;6.65;3.03;;;1.10;99.90;;;;;;5081906;28;20243;-62
2022/01/10 04:19:30;;;;;;;3.40;3.10;;;1.00;99.90;;;;;;5085095;28;20414;-63
2022/01/10 04:21:58;;;;;;;3.85;3.45;;;1.00;99.90;;;;;;5085166;28;20196;-62
2022/01/10 04:24:25;;;;;;;3.55;2.38;;;0.90;99.90;;;;;;5084302;28;20262;-62
2022/01/10 04:26:51;;;;;;;4.78;3.40;;;0.90;99.90;;;;;;5086478;28;20278;-63
2022/01/10 04:29:18;;;;;;;5.68;3.60;;;0.80;99.90;;;;;;5081493;28;20246;-62
2022/01/10 04:31:45;;;;;;;5.10;3.30;;;0.80;99.90;;;;;;5085240;28;20197;-61
2022/01/10 04:34:12;;;;;;;3.97;3.10;;;0.80;99.90;;;;;;5087520;28;20200;-61
2022/01/10 04:36:38;;;;;;;2.88;2.67;;;0.80;99.90;;;;;;5084896;28;20220;-64
2022/01/10 04:39:06;;;;;;;3.72;2.05;;;0.80;99.90;;;;;;5082104;28;20224;-61
2022/01/10 04:41:33;;;;;;;4.20;3.80;;;0.80;99.90;;;;;;5082697;28;20201;-62
2022/01/10 04:44:00;;;;;;;6.90;3.35;;;0.80;99.90;;;;;;5089105;28;20196;-62
2022/01/10 04:46:27;;;;;;;6.25;3.72;;;0.80;99.90;;;;;;5084128;28;20247;-61
2022/01/10 04:48:53;;;;;;;4.38;2.00;;;0.80;99.90;;;;;;5079488;28;20682;-63
2022/01/10 04:51:20;;;;;;;5.10;3.33;;;0.80;99.90;;;;;;5074337;28;20284;-61
2022/01/10 04:53:50;;;;;;;3.75;3.17;;;0.80;99.90;;;;;;5078425;28;20213;-62
2022/01/10 04:56:19;;;;;;;5.18;4.03;;;0.80;99.90;;;;;;5081312;28;20231;-63
2022/01/10 04:58:47;;;;;;;3.20;2.10;;;0.80;99.90;;;;;;5078657;28;20200;-63
2022/01/10 05:01:15;;;;;;;4.47;2.60;;;0.80;99.90;;;;;;5080161;28;20201;-63
2022/01/10 05:03:42;;;;;;;3.35;1.90;;;0.80;99.90;;;;;;5084481;28;20258;-64
2022/01/10 05:06:08;;;;;;;2.97;2.78;;;0.80;99.90;;;;;;5080366;28;20216;-63
2022/01/10 05:08:36;;;;;;;2.60;1.80;;;0.70;99.90;;;;;;5082726;28;20205;-63
2022/01/10 05:11:04;;;;;;;5.53;3.58;;;0.70;99.90;;;;;;5078547;28;20193;-63
2022/01/10 05:13:32;;;;;;;6.25;3.40;;;0.70;99.90;;;;;;5084995;28;20197;-63
2022/01/10 05:15:59;;;;;;;4.40;3.40;;;0.60;99.90;;;;;;5088391;28;20734;-63
2022/01/10 05:18:26;;;;;;;3.03;2.83;;;0.60;99.90;;;;;;5080696;28;20204;-63
2022/01/10 05:20:53;;;;;;;2.72;2.35;;;0.70;99.90;;;;;;5076834;28;20221;-63
2022/01/10 05:23:20;;;;;;;4.32;3.50;;;0.60;99.90;;;;;;5083362;28;20209;-64
2022/01/10 05:25:47;;;;;;;3.90;2.63;;;0.60;99.90;;;;;;5084411;28;20220;-63
2022/01/10 05:28:17;;;;;;;2.50;2.30;;;0.70;99.90;;;;;;5079178;28;20263;-62
2022/01/10 05:30:45;;;;;;;3.97;3.60;;;0.70;99.90;;;;;;5082159;28;20197;-63
2022/01/10 05:33:13;;;;;;;3.50;2.60;;;0.80;99.90;;;;;;5080875;28;20689;-62
2022/01/10 05:35:40;;;;;;;9.15;3.50;;;0.80;99.90;;;;;;5079701;28;20623;-62
2022/01/10 05:38:07;;;;;;;2.72;2.50;;;0.90;99.90;;;;;;5085375;28;20201;-62
2022/01/10 05:40:34;;;;;;;3.05;2.85;;;1.00;99.90;;;;;;5084136;28;20290;-63
2022/01/10 05:43:01;;;;;;;2.95;2.72;;;1.10;99.90;;;;;;5083203;28;20226;-64
2022/01/10 05:45:28;;;;;;;4.30;3.85;;;1.20;99.90;;;;;;5081445;28;20216;-63
2022/01/10 05:47:56;;;;;;;5.90;2.90;;;1.30;99.90;;;;;;5080834;28;20250;-63
2022/01/10 05:50:33;;;;;;;4.95;2.70;;;1.40;99.90;;;;;;5082164;28;20996;-63
2022/01/10 05:53:00;;;;;;;3.08;2.80;;;1.50;99.90;;;;;;5080948;28;20821;-63
2022/01/10 05:55:27;;;;;;;5.28;2.53;;;1.60;99.90;;;;;;5080640;28;20224;-63
2022/01/10 05:57:54;;;;;;;2.20;2.10;;;1.70;99.90;;;;;;5083836;28;20266;-63
2022/01/10 06:00:21;;;;;;;3.55;3.25;;;1.70;99.90;;;;;;5083383;28;20283;-63
2022/01/10 06:02:48;;;;;;;4.18;3.38;;;1.80;99.90;;;;;;5075699;28;20270;-63
2022/01/10 06:05:17;;;;;;;3.88;3.17;;;1.80;99.90;;;;;;5077505;28;20259;-63
2022/01/10 06:07:44;;;;;;;2.70;2.40;;;1.90;99.90;;;;;;5081170;28;20222;-63
2022/01/10 06:10:10;;;;;;;8.73;4.28;;;1.90;99.90;;;;;;5079213;28;20200;-62
2022/01/10 06:12:37;;;;;;;7.78;3.00;;;2.00;99.90;;;;;;5082924;28;20200;-63
2022/01/10 06:15:05;;;;;;;4.85;3.95;;;2.00;99.90;;;;;;5087798;28;20282;-63
2022/01/10 06:17:31;;;;;;;5.05;3.83;;;2.10;99.90;;;;;;5081519;28;20196;-62
2022/01/10 06:19:59;;;;;;;7.40;3.88;;;2.10;99.90;;;;;;5084900;28;20575;-64
2022/01/10 06:22:27;;;;;;;5.20;3.28;;;2.10;99.90;;;;;;5082103;28;20200;-63
2022/01/10 06:24:54;;;;;;;5.35;4.85;;;2.10;99.90;;;;;;5082715;28;20270;-63
2022/01/10 06:27:21;;;;;;;3.30;2.80;;;2.10;99.90;;;;;;5085259;28;20258;-63
2022/01/10 06:29:47;;;;;;;4.35;2.78;;;2.20;99.90;;;;;;5086612;28;20192;-63
2022/01/10 06:32:14;;;;;;;8.57;3.55;;;2.20;99.90;;;;;;5089038;28;20204;-63
2022/01/10 06:34:41;;;;;;;3.83;3.22;;;2.20;99.90;;;;;;5089998;28;20254;-63
2022/01/10 06:37:07;;;;;;;3.00;2.80;;;2.20;99.90;;;;;;5087407;28;20265;-63
2022/01/10 06:39:36;;;;;;;5.30;3.83;;;2.20;99.90;;;;;;5088711;28;20220;-63
2022/01/10 06:42:03;;;;;;;5.03;2.92;;;2.20;99.90;;;;;;5092129;28;20193;-63
2022/01/10 06:44:30;;;;;;;4.10;2.70;;;2.20;99.90;;;;;;5087992;28;20205;-63
2022/01/10 06:46:57;;;;;;;6.82;3.55;;;2.20;99.90;;;;;;5085477;28;20217;-63
2022/01/10 06:49:24;;;;;;;5.35;3.30;;;2.20;99.90;;;;;;5088577;28;20200;-62
2022/01/10 06:51:50;;;;;;;5.25;3.30;;;2.20;99.90;;;;;;5089196;28;20192;-64
2022/01/10 06:54:17;;;;;;;3.53;3.33;;;2.20;99.90;;;;;;5087503;28;20254;-63
2022/01/10 06:56:45;;;;;;;3.67;3.35;;;2.20;99.90;;;;;;5088592;28;20659;-62
2022/01/10 06:59:12;;;;;;;3.20;2.90;;;2.20;99.90;;;;;;5087393;28;20223;-62
2022/01/10 07:01:38;;;;;;;3.25;2.95;;;2.20;99.90;;;;;;5085231;28;20228;-64
2022/01/10 07:04:05;;;;;;;4.65;3.25;;;2.20;99.90;;;;;;5089287;28;20217;-62
2022/01/10 07:06:32;;;;;;;3.40;3.10;;;2.20;99.90;;;;;;5091748;28;20277;-62
2022/01/10 07:08:58;;;;;;;4.80;3.60;;;2.20;99.90;;;;;;5085873;28;20208;-62
2022/01/10 07:11:25;;;;;;;4.22;2.90;;;2.20;99.90;;;;;;5087349;28;20212;-63
2022/01/10 07:13:53;;;;;;;3.47;3.17;;;2.20;99.90;;;;;;5086882;28;20205;-62
2022/01/10 07:16:20;;;;;;;7.57;2.85;;;2.20;99.90;;;;;;5094964;28;20225;-62
2022/01/10 07:18:47;;;;;;;6.28;4.13;;;2.20;99.90;;;;;;5093078;28;20248;-64
2022/01/10 07:21:13;;;;;;;5.35;3.28;;;2.20;99.90;;;;;;5085476;28;20277;-63
2022/01/10 07:23:40;;;;;;;3.15;2.92;;;2.20;99.90;;;;;;5088225;28;20220;-63
2022/01/10 07:26:06;;;;;;;2.22;1.83;;;2.20;99.90;;;;;;5099130;28;20695;-61
2022/01/10 07:28:33;;;;;;;4.53;4.13;;;2.20;99.90;;;;;;5087699;28;20217;-62
2022/01/10 07:31:01;;;;;;;3.70;3.22;;;2.20;99.90;;;;;;5086931;28;20200;-61
2022/01/10 07:33:28;;;;;;;3.90;3.10;;;2.20;99.90;;;;;;5085422;28;20200;-62
2022/01/10 07:35:54;;;;;;;4.07;2.75;;;2.20;99.90;;;;;;5086081;28;20220;-62
2022/01/10 07:38:21;;;;;;;5.57;2.75;;;2.20;99.90;;;;;;5088124;28;20250;-63
2022/01/10 07:40:48;;;;;;;4.20;3.80;;;2.20;99.90;;;;;;5087479;28;20606;-63
2022/01/10 07:43:15;;;;;;;5.80;2.60;;;2.20;99.90;;;;;;5090626;28;20204;-64
2022/01/10 07:45:41;;;;;;;3.65;2.70;;;2.20;99.90;;;;;;5090033;28;20224;-64
2022/01/10 07:48:10;;;;;;;3.28;2.97;;;2.20;99.90;;;;;;5088357;28;20254;-64
2022/01/10 07:50:36;;;;;;;3.67;3.38;;;2.30;99.90;;;;;;5088244;28;20266;-62
2022/01/10 07:53:03;;;;;;;5.50;4.50;;;2.30;99.90;;;;;;5093163;28;20195;-62
2022/01/10 07:55:30;;;;;;;3.35;3.08;;;2.30;99.90;;;;;;5087591;28;20261;-64
2022/01/10 07:57:56;;;;;;;5.45;3.60;;;2.30;99.90;;;;;;5076582;28;20209;-62
2022/01/10 08:00:23;;;;;;;3.88;3.45;;;2.20;99.90;;;;;;5081155;28;20290;-66
2022/01/10 08:02:50;;;;;;;3.17;2.97;;;2.20;99.90;;;;;;5077877;28;20208;-63
2022/01/10 08:05:18;;;;;;;5.82;3.72;;;2.20;99.90;;;;;;5087897;28;20228;-64
2022/01/10 08:07:44;;;;;;;3.72;2.85;;;2.20;99.90;;;;;;5087286;28;20209;-62
2022/01/10 08:10:11;;;;;;;5.07;4.18;;;2.20;99.90;;;;;;5100165;28;20200;-62
2022/01/10 08:12:38;;;;;;;5.72;3.50;;;2.10;99.90;;;;;;5087763;28;20201;-62
2022/01/10 08:15:05;;;;;;;4.95;3.83;;;2.10;99.90;;;;;;5087588;28;20232;-63
2022/01/10 08:17:32;;;;;;;3.03;2.83;;;2.00;99.90;;;;;;5087552;28;20243;-63
2022/01/10 08:19:59;;;;;;;3.47;3.17;;;2.00;99.90;;;;;;5089065;28;20208;-63
2022/01/10 08:22:27;;;;;;;7.85;3.00;;;1.90;99.90;;;;;;5088712;28;20201;-63
2022/01/10 08:24:53;;;;;;;10.30;4.03;;;1.80;99.90;;;;;;5088265;28;20258;-62
2022/01/10 08:27:20;;;;;;;3.22;2.90;;;1.80;99.90;;;;;;5089909;28;20258;-64
2022/01/10 08:29:47;;;;;;;6.47;3.55;;;1.80;99.90;;;;;;5085226;28;20204;-64
2022/01/10 08:32:14;;;;;;;3.08;2.88;;;1.70;99.90;;;;;;5087833;28;20212;-63
2022/01/10 08:34:41;;;;;;;3.22;2.92;;;1.70;99.90;;;;;;5085125;28;20708;-65
2022/01/10 08:37:08;;;;;;;7.22;4.10;;;1.70;99.90;;;;;;5089638;28;20258;-64
2022/01/10 08:39:36;;;;;;;3.53;3.33;;;1.70;99.90;;;;;;5089084;28;20620;-63
2022/01/10 08:42:03;;;;;;;4.05;2.55;;;1.70;99.90;;;;;;5099920;28;20269;-64
2022/01/10 08:44:30;;;;;;;3.70;3.25;;;1.70;99.90;;;;;;5104081;28;20480;-63
2022/01/10 08:46:56;;;;;;;4.22;3.83;;;1.70;99.90;;;;;;5097050;28;20224;-63
2022/01/10 08:49:24;;;;;;;8.23;4.22;;;1.80;99.90;;;;;;5090536;28;20196;-63
2022/01/10 08:51:54;;;;;;;3.92;2.13;;;1.80;99.90;;;;;;5090649;28;20197;-63
2022/01/10 08:54:22;;;;;;;5.90;3.50;;;1.90;99.90;;;;;;5085780;28;20204;-63
2022/01/10 08:56:52;;;;;;;3.20;2.95;;;2.10;99.90;;;;;;5087238;28;20252;-61
2022/01/10 08:59:19;;;;;;;8.55;4.78;;;2.30;99.90;;;;;;5086580;28;20246;-63
2022/01/10 09:01:46;;;;;;;3.55;3.33;;;2.40;99.90;;;;;;5087219;28;20639;-63
2022/01/10 09:04:16;;;;;;;4.90;4.40;;;2.50;99.90;;;;;;5090782;28;20208;-61
2022/01/10 09:06:43;;;;;;;4.57;3.85;;;2.70;99.90;;;;;;5090869;28;20717;-64
2022/01/10 09:09:11;;;;;;;3.78;3.40;;;2.90;99.90;;;;;;5089090;28;20578;-62
2022/01/10 09:11:38;;;;;;;13.57;3.60;;;3.00;99.90;;;;;;5089875;28;20238;-63
2022/01/10 09:14:06;;;;;;;4.35;3.85;;;3.20;99.90;;;;;;5090038;28;20209;-62
2022/01/10 09:16:33;;;;;;;8.25;4.57;;;3.30;99.90;;;;;;5089848;28;20232;-62
2022/01/10 09:19:00;;;;;;;6.35;4.20;;;3.40;99.90;;;;;;5092680;28;20205;-63
2022/01/10 09:21:27;;;;;;;4.20;3.90;;;3.60;99.90;;;;;;5089965;28;20216;-63
2022/01/10 09:23:54;;;;;;;5.97;5.10;;;3.70;99.90;;;;;;5088616;28;20246;-61
2022/01/10 09:26:21;;;;;;;5.82;4.63;;;3.80;99.90;;;;;;5087685;28;20224;-62
2022/01/10 09:28:47;;;;;;;6.68;4.68;;;4.00;99.90;;;;;;5090049;28;20193;-62
2022/01/10 09:31:15;;;;;;;6.78;5.10;;;4.10;99.90;;;;;;5090443;28;20200;-62
2022/01/10 09:33:42;;;;;;;6.80;3.92;;;4.30;99.90;;;;;;5090779;28;20193;-62
2022/01/10 09:36:10;;;;;;;3.70;3.40;;;4.50;99.90;;;;;;5090176;28;20274;-63
2022/01/10 09:38:37;;;;;;;6.63;5.50;;;4.60;99.90;;;;;;5089822;28;20269;-66
2022/01/10 09:41:03;;;;;;;5.55;4.25;;;4.70;99.90;;;;;;5089537;28;20224;-69
2022/01/10 09:43:30;;;;;;;7.22;3.83;;;4.90;99.90;;;;;;5088745;28;20196;-72
2022/01/10 09:45:57;;;;;;;8.25;3.25;;;5.10;99.90;;;;;;5085377;28;20220;-69
2022/01/10 09:48:25;;;;;;;5.68;3.72;;;5.30;99.90;;;;;;5088746;28;20205;-62
2022/01/10 09:50:52;;;;;;;4.32;3.83;;;5.50;99.90;;;;;;5091866;28;20682;-61
2022/01/10 09:53:21;;;;;;;10.98;4.10;;;5.80;99.90;;;;;;5098862;28;20601;-62
2022/01/10 09:55:48;;;;;;;3.88;3.40;;;5.90;99.90;;;;;;5088340;28;20259;-62
2022/01/10 09:58:15;;;;;;;2.45;2.13;;;6.00;99.90;;;;;;5090272;28;20208;-62
2022/01/10 10:00:42;;;;;;;3.40;2.75;;;6.10;99.90;;;;;;5087746;28;20228;-63
2022/01/10 10:03:09;;;;;;;8.73;4.15;;;6.20;99.90;;;;;;5090326;28;20250;-62
2022/01/10 10:05:37;;;;;;;3.33;3.08;;;6.30;99.90;;;;;;5092407;28;20232;-62
2022/01/10 10:08:04;;;;;;;7.10;4.80;;;6.40;99.90;;;;;;5101820;28;20201;-63
2022/01/10 10:10:32;;;;;;;5.72;4.65;;;6.40;99.90;;;;;;5087532;28;20265;-62
2022/01/10 10:12:59;;;;;;;4.43;3.95;;;6.50;99.90;;;;;;5090133;28;20855;-64
2022/01/10 10:15:30;;;;;;;4.22;3.90;;;6.60;99.90;;;;;;5088861;28;20228;-62
2022/01/10 10:17:58;;;;;;;5.78;4.55;;;6.60;99.90;;;;;;5088748;28;20208;-63
2022/01/10 10:20:25;;;;;;;3.95;3.42;;;6.70;99.90;;;;;;5096086;22;20293;-68
2022/01/10 10:22:54;;;;;;;4.20;3.90;;;6.80;99.90;;;;;;5066197;28;20193;-70
2022/01/10 10:25:21;;;;;;;5.32;3.25;;;6.90;99.90;;;;;;5065607;28;20216;-68
2022/01/10 10:27:49;;;;;;;4.75;3.40;;;7.00;99.90;;;;;;5067660;28;20713;-68
2022/01/10 10:30:19;;;;;;;5.20;4.30;;;7.20;99.90;;;;;;5072158;28;20227;-68
2022/01/10 10:32:46;;;;;;;4.72;4.30;;;7.40;99.90;;;;;;5065157;28;20198;-68
2022/01/10 10:35:13;;;;;;;3.35;3.13;;;7.50;99.90;;;;;;5067854;28;20258;-69
2022/01/10 10:37:42;;;;;;;4.05;3.75;;;7.40;99.90;;;;;;5071293;28;20204;-68
2022/01/10 10:40:14;;;;;;;7.80;4.28;;;7.40;99.90;;;;;;5073918;28;20369;-68
2022/01/10 10:42:42;;;;;;;4.15;3.85;;;7.50;99.90;;;;;;5086510;28;20225;-68
2022/01/10 10:45:11;;;;;;;3.60;3.30;;;7.50;99.90;;;;;;5083228;28;20556;-68
2022/01/10 10:47:40;;;;;;;5.53;4.10;;;7.70;99.90;;;;;;5075621;28;20471;-68
2022/01/10 10:50:09;;;;;;;3.83;3.17;;;7.60;99.90;;;;;;5063622;28;20221;-68
2022/01/10 10:52:41;;;;;;;7.25;3.55;;;7.60;99.90;;;;;;5069753;28;20470;-69
2022/01/10 10:55:11;;;;;;;3.97;3.57;;;7.60;99.90;;;;;;5070665;28;20634;-68
2022/01/10 10:57:38;;;;;;;6.43;3.23;;;7.60;99.90;;;;;;5079221;28;20458;-68
2022/01/10 11:00:09;;;;;;;6.00;4.35;;;7.60;99.90;;;;;;5066570;28;20642;-68
2022/01/10 11:02:36;;;;;;;4.78;3.75;;;7.60;99.90;;;;;;5052408;28;20279;-68
2022/01/10 11:05:06;;;;;;;5.70;3.90;;;7.60;99.90;;;;;;5064290;28;20466;-68
2022/01/10 11:07:35;;;;;;;6.03;4.65;;;7.70;99.90;;;;;;5065663;28;20456;-68
2022/01/10 11:10:03;;;;;;;6.93;4.22;;;7.90;99.90;;;;;;5072407;28;20235;-67
2022/01/10 11:12:33;;;;;;;5.90;3.05;;;8.00;99.90;;;;;;5063484;28;20201;-67
2022/01/10 11:15:00;;;;;;;4.13;3.83;;;8.10;99.90;;;;;;5076491;28;20587;-67
2022/01/10 11:17:28;;;;;;;4.10;3.50;;;8.20;99.90;;;;;;5065194;28;20537;-67
2022/01/10 11:20:09;;;;;;;4.23;3.23;;;8.10;99.90;;;;;;5071729;28;20560;-67
2022/01/10 11:22:38;;;;;;;5.73;3.53;;;8.10;99.90;;;;;;5075546;28;20889;-66
2022/01/10 11:25:18;;;;;;;3.83;3.07;;;8.20;99.90;;;;;;5071958;28;20466;-66
2022/01/10 11:27:46;;;;;;;4.97;4.20;;;8.30;99.90;;;;;;5080476;28;20473;-67
2022/01/10 11:30:32;;;;;;;4.53;3.43;;;8.20;99.90;;;;;;5072266;28;20567;-67
2022/01/10 11:33:05;;;;;;;4.87;3.20;;;8.20;99.90;;;;;;5080964;28;20456;-67
2022/01/10 11:35:33;;;;;;;5.93;4.20;;;8.30;99.90;;;;;;5065479;28;20463;-67
2022/01/10 11:38:00;;;;;;;8.27;4.37;;;8.40;99.90;;;;;;5076599;28;20454;-67
2022/01/10 11:40:28;;;;;;;5.90;4.37;;;8.50;99.90;;;;;;5073163;28;20920;-67
2022/01/10 11:42:58;;;;;;;6.50;4.47;;;8.50;99.90;;;;;;5077170;28;20483;-66
2022/01/10 11:45:25;;;;;;;7.27;3.37;;;8.60;99.90;;;;;;5066987;28;20474;-66
2022/01/10 11:48:14;;;;;;;8.20;4.03;;;8.70;99.90;;;;;;5075615;28;20466;-66
2022/01/10 11:50:44;;;;;;;6.13;3.70;;;8.60;99.90;;;;;;5060826;28;20912;-67
2022/01/10 11:53:11;;;;;;;3.97;3.57;;;8.60;99.90;;;;;;5068298;28;20471;-67
2022/01/10 11:55:45;;;;;;;4.67;3.80;;;8.60;99.90;;;;;;5069110;28;20459;-67
2022/01/10 11:58:18;;;;;;;4.93;4.43;;;8.70;99.90;;;;;;5083672;28;20440;-67
2022/01/10 12:00:45;;;;;;;4.47;2.90;;;8.90;99.90;;;;;;5068740;28;20510;-68
2022/01/10 12:03:13;;;;;;;5.90;3.70;;;9.00;99.90;;;;;;5077801;28;20606;-69
2022/01/10 12:05:40;;;;;;;9.90;4.70;;;9.10;99.90;;;;;;5083753;28;20519;-69
2022/01/10 12:08:08;;;;;;;6.33;4.00;;;9.20;99.90;;;;;;5077013;28;20470;-68
2022/01/10 12:10:35;;;;;;;8.47;4.67;;;9.20;99.90;;;;;;5068280;28;20576;-68
2022/01/10 12:13:05;;;;;;;7.37;4.70;;;9.30;99.90;;;;;;5066605;28;20465;-68
2022/01/10 12:15:35;;;;;;;11.23;5.70;;;9.50;99.90;;;;;;5076205;28;20489;-69
2022/01/10 12:18:02;;;;;;;9.63;4.70;;;9.70;99.90;;;;;;5077233;28;21195;-67
2022/01/10 12:20:29;;;;;;;6.60;4.73;;;9.90;99.90;;;;;;5065447;28;20544;-68
2022/01/10 12:22:57;;;;;;;5.70;3.97;;;10.10;99.90;;;;;;5067470;28;20567;-69
2022/01/10 12:25:25;;;;;;;11.67;4.60;;;10.30;99.90;;;;;;5078229;28;20510;-68
2022/01/10 12:27:54;;;;;;;8.90;4.90;;;10.10;99.90;;;;;;5094919;28;20430;-69
2022/01/10 12:30:22;;;;;;;4.70;4.10;;;10.00;99.90;;;;;;5090613;28;20559;-70
2022/01/10 12:32:50;;;;;;;8.83;3.70;;;10.20;99.90;;;;;;5078550;28;20970;-66
2022/01/10 12:35:18;;;;;;;6.67;3.90;;;10.40;99.90;;;;;;5081516;28;20515;-68
2022/01/10 12:37:44;;;;;;;11.07;5.33;;;10.30;99.90;;;;;;5094250;28;20425;-67
2022/01/10 12:40:13;;;;;;;12.63;5.33;;;10.30;99.90;;;;;;5076261;28;20487;-67
2022/01/10 12:42:40;;;;;;;8.03;5.20;;;10.20;99.90;;;;;;5072085;28;21000;-68
2022/01/10 12:45:07;;;;;;;5.03;4.30;;;10.20;99.90;;;;;;5091196;28;20461;-67
2022/01/10 12:47:34;;;;;;;11.70;6.03;;;10.20;99.90;;;;;;5076309;28;20546;-67
2022/01/10 12:50:03;;;;;;;6.13;4.27;;;10.30;99.90;;;;;;5077363;28;20487;-69
2022/01/10 12:52:30;;;;;;;4.73;3.13;;;10.70;99.90;;;;;;5075971;28;20460;-69
2022/01/10 12:54:56;;;;;;;7.80;4.77;;;10.90;99.90;;;;;;5082835;28;20528;-69
2022/01/10 12:57:23;;;;;;;8.17;4.00;;;11.20;99.90;;;;;;5068283;28;20461;-70
2022/01/10 12:59:50;;;;;;;4.87;2.80;;;11.30;99.90;;;;;;5068578;28;20458;-70
2022/01/10 13:02:18;;;;;;;9.27;5.20;;;11.40;99.90;;;;;;5067075;28;20525;-70
2022/01/10 13:04:44;;;;;;;8.80;4.57;;;11.60;99.90;;;;;;5078050;28;20508;-69